Beltrami, Minnesota
Current Conditions -  °F | °C
As of 11:55 AM on Friday 21 Nov 2014 (Local Time) from KCKN Reporting Station
Clear Clear  
Wind Chill: 11°   Ceiling: Unl
Heat Index: 27°   Visibility: 10mi
Dew Point: 19°   Wind: 29mph
Humidity: 74%   Direction: 200°SSW
Pressure: 29.77"   Gusts: 33mph
Location:  47.54°N, 96.53°W
Report Text: KCKN 211755Z AUTO 20025G29KT 10SM CLR M03/M07 A2977 RMK AO2
Loading
Personal Weather Stations






























Interactive Weather Map New forecast layout! Learn more

10-Day Weather Forecast

Advertisements
Track Severe Weather on mobile